sensor_id;sensor_type;location;lat;lon;timestamp;P1;durP1;ratioP1;P2;durP2;ratioP2
50363;SDS011;36272;59.400;17.982;2022-10-16T00:00:20;46.45;;;24.45;;
50363;SDS011;36272;59.400;17.982;2022-10-16T00:05:22;36.72;;;21.27;;
50363;SDS011;36272;59.400;17.982;2022-10-16T00:10:24;35.05;;;18.17;;
50363;SDS011;36272;59.400;17.982;2022-10-16T00:15:26;32.00;;;19.25;;
50363;SDS011;36272;59.400;17.982;2022-10-16T00:20:28;37.63;;;20.33;;
50363;SDS011;36272;59.400;17.982;2022-10-16T00:25:29;33.17;;;20.20;;
50363;SDS011;36272;59.400;17.982;2022-10-16T00:30:33;33.22;;;18.70;;
50363;SDS011;36272;59.400;17.982;2022-10-16T00:35:38;29.95;;;18.83;;
50363;SDS011;36272;59.400;17.982;2022-10-16T00:40:39;28.20;;;16.83;;
50363;SDS011;36272;59.400;17.982;2022-10-16T00:45:41;26.98;;;15.90;;
50363;SDS011;36272;59.400;17.982;2022-10-16T00:50:43;28.65;;;17.25;;
50363;SDS011;36272;59.400;17.982;2022-10-16T00:55:44;27.38;;;16.52;;
50363;SDS011;36272;59.400;17.982;2022-10-16T01:00:47;33.88;;;17.63;;
50363;SDS011;36272;59.400;17.982;2022-10-16T01:05:54;27.02;;;17.38;;
50363;SDS011;36272;59.400;17.982;2022-10-16T01:16:30;30.70;;;17.88;;
50363;SDS011;36272;59.400;17.982;2022-10-16T01:21:36;28.15;;;18.17;;
50363;SDS011;36272;59.400;17.982;2022-10-16T01:32:29;32.22;;;17.95;;
50363;SDS011;36272;59.400;17.982;2022-10-16T01:37:37;28.88;;;18.08;;
50363;SDS011;36272;59.400;17.982;2022-10-16T01:42:42;30.98;;;18.15;;
50363;SDS011;36272;59.400;17.982;2022-10-16T01:47:48;28.92;;;17.42;;
50363;SDS011;36272;59.400;17.982;2022-10-16T01:52:52;25.15;;;16.23;;
50363;SDS011;36272;59.400;17.982;2022-10-16T01:57:58;28.77;;;16.52;;
50363;SDS011;36272;59.400;17.982;2022-10-16T02:03:03;28.77;;;17.08;;
50363;SDS011;36272;59.400;17.982;2022-10-16T02:08:06;24.25;;;15.75;;
50363;SDS011;36272;59.400;17.982;2022-10-16T02:18:10;28.75;;;16.02;;
50363;SDS011;36272;59.400;17.982;2022-10-16T02:23:12;24.55;;;14.75;;
50363;SDS011;36272;59.400;17.982;2022-10-16T02:28:27;19.65;;;13.90;;
50363;SDS011;36272;59.400;17.982;2022-10-16T02:33:59;22.45;;;14.55;;
50363;SDS011;36272;59.400;17.982;2022-10-16T02:39:06;22.60;;;13.73;;
50363;SDS011;36272;59.400;17.982;2022-10-16T02:44:09;24.70;;;14.20;;
50363;SDS011;36272;59.400;17.982;2022-10-16T02:49:10;21.15;;;13.23;;
50363;SDS011;36272;59.400;17.982;2022-10-16T02:54:12;23.80;;;13.30;;
50363;SDS011;36272;59.400;17.982;2022-10-16T02:59:14;27.25;;;14.25;;
50363;SDS011;36272;59.400;17.982;2022-10-16T03:04:15;25.85;;;14.63;;
50363;SDS011;36272;59.400;17.982;2022-10-16T03:09:17;25.45;;;14.05;;
50363;SDS011;36272;59.400;17.982;2022-10-16T03:14:19;24.52;;;14.50;;
50363;SDS011;36272;59.400;17.982;2022-10-16T03:19:20;25.92;;;15.35;;
50363;SDS011;36272;59.400;17.982;2022-10-16T03:24:22;24.80;;;15.73;;
50363;SDS011;36272;59.400;17.982;2022-10-16T03:29:24;24.85;;;15.05;;
50363;SDS011;36272;59.400;17.982;2022-10-16T03:34:26;23.38;;;14.50;;
50363;SDS011;36272;59.400;17.982;2022-10-16T03:39:29;25.27;;;14.40;;
50363;SDS011;36272;59.400;17.982;2022-10-16T03:44:30;23.98;;;13.65;;
50363;SDS011;36272;59.400;17.982;2022-10-16T03:49:32;21.65;;;13.85;;
50363;SDS011;36272;59.400;17.982;2022-10-16T03:54:34;22.65;;;12.73;;
50363;SDS011;36272;59.400;17.982;2022-10-16T03:59:35;21.40;;;13.40;;
50363;SDS011;36272;59.400;17.982;2022-10-16T04:04:37;19.73;;;12.73;;
50363;SDS011;36272;59.400;17.982;2022-10-16T04:09:38;20.42;;;12.57;;
50363;SDS011;36272;59.400;17.982;2022-10-16T04:14:40;18.30;;;11.50;;
50363;SDS011;36272;59.400;17.982;2022-10-16T04:19:42;19.75;;;10.55;;
50363;SDS011;36272;59.400;17.982;2022-10-16T04:24:43;15.75;;;9.77;;
50363;SDS011;36272;59.400;17.982;2022-10-16T04:29:45;16.63;;;10.25;;
50363;SDS011;36272;59.400;17.982;2022-10-16T04:34:47;16.85;;;10.20;;
50363;SDS011;36272;59.400;17.982;2022-10-16T04:39:48;20.58;;;9.68;;
50363;SDS011;36272;59.400;17.982;2022-10-16T04:44:50;16.77;;;10.02;;
50363;SDS011;36272;59.400;17.982;2022-10-16T04:49:51;19.70;;;10.10;;
50363;SDS011;36272;59.400;17.982;2022-10-16T04:54:53;21.45;;;10.07;;
50363;SDS011;36272;59.400;17.982;2022-10-16T04:59:55;17.92;;;9.48;;
50363;SDS011;36272;59.400;17.982;2022-10-16T05:04:57;14.82;;;9.73;;
50363;SDS011;36272;59.400;17.982;2022-10-16T05:09:58;16.67;;;9.57;;
50363;SDS011;36272;59.400;17.982;2022-10-16T05:15:00;16.60;;;9.90;;
50363;SDS011;36272;59.400;17.982;2022-10-16T05:20:01;13.82;;;9.85;;
50363;SDS011;36272;59.400;17.982;2022-10-16T05:25:04;18.80;;;10.07;;
50363;SDS011;36272;59.400;17.982;2022-10-16T05:30:06;20.48;;;10.68;;
50363;SDS011;36272;59.400;17.982;2022-10-16T05:35:08;17.95;;;10.20;;
50363;SDS011;36272;59.400;17.982;2022-10-16T05:40:15;17.25;;;9.75;;
50363;SDS011;36272;59.400;17.982;2022-10-16T05:45:18;20.63;;;11.82;;
50363;SDS011;36272;59.400;17.982;2022-10-16T05:50:19;22.38;;;12.05;;
50363;SDS011;36272;59.400;17.982;2022-10-16T05:55:21;19.23;;;12.48;;
50363;SDS011;36272;59.400;17.982;2022-10-16T06:00:22;27.42;;;13.68;;
50363;SDS011;36272;59.400;17.982;2022-10-16T06:05:24;23.77;;;13.50;;
50363;SDS011;36272;59.400;17.982;2022-10-16T06:10:27;20.88;;;13.27;;
50363;SDS011;36272;59.400;17.982;2022-10-16T06:15:30;27.10;;;15.18;;
50363;SDS011;36272;59.400;17.982;2022-10-16T06:20:36;28.33;;;16.60;;
50363;SDS011;36272;59.400;17.982;2022-10-16T06:25:38;28.48;;;16.50;;
50363;SDS011;36272;59.400;17.982;2022-10-16T06:30:40;40.08;;;16.70;;
50363;SDS011;36272;59.400;17.982;2022-10-16T06:35:44;30.58;;;18.65;;
50363;SDS011;36272;59.400;17.982;2022-10-16T06:40:50;29.13;;;18.20;;
50363;SDS011;36272;59.400;17.982;2022-10-16T06:45:54;29.67;;;16.63;;
50363;SDS011;36272;59.400;17.982;2022-10-16T06:50:58;28.75;;;17.33;;
50363;SDS011;36272;59.400;17.982;2022-10-16T06:56:08;30.20;;;17.48;;
50363;SDS011;36272;59.400;17.982;2022-10-16T07:01:26;30.20;;;16.70;;
50363;SDS011;36272;59.400;17.982;2022-10-16T07:06:30;28.88;;;15.68;;
50363;SDS011;36272;59.400;17.982;2022-10-16T07:11:33;23.45;;;15.02;;
50363;SDS011;36272;59.400;17.982;2022-10-16T07:16:34;26.17;;;15.07;;
50363;SDS011;36272;59.400;17.982;2022-10-16T07:21:36;29.92;;;15.27;;
50363;SDS011;36272;59.400;17.982;2022-10-16T07:26:38;25.05;;;15.10;;
50363;SDS011;36272;59.400;17.982;2022-10-16T07:31:41;29.73;;;14.55;;
50363;SDS011;36272;59.400;17.982;2022-10-16T07:36:44;25.52;;;13.23;;
50363;SDS011;36272;59.400;17.982;2022-10-16T07:41:48;26.35;;;13.00;;
50363;SDS011;36272;59.400;17.982;2022-10-16T07:46:49;29.52;;;14.00;;
50363;SDS011;36272;59.400;17.982;2022-10-16T07:51:51;17.75;;;11.88;;
50363;SDS011;36272;59.400;17.982;2022-10-16T07:56:53;23.40;;;10.98;;
50363;SDS011;36272;59.400;17.982;2022-10-16T08:01:54;17.90;;;9.80;;
50363;SDS011;36272;59.400;17.982;2022-10-16T08:06:56;14.27;;;8.13;;
50363;SDS011;36272;59.400;17.982;2022-10-16T08:12:00;14.48;;;8.18;;
50363;SDS011;36272;59.400;17.982;2022-10-16T08:17:01;15.48;;;7.70;;
50363;SDS011;36272;59.400;17.982;2022-10-16T08:22:05;17.42;;;8.65;;
50363;SDS011;36272;59.400;17.982;2022-10-16T08:27:07;10.38;;;7.20;;
50363;SDS011;36272;59.400;17.982;2022-10-16T08:32:10;10.63;;;6.80;;
50363;SDS011;36272;59.400;17.982;2022-10-16T08:37:11;13.05;;;6.15;;
50363;SDS011;36272;59.400;17.982;2022-10-16T08:47:35;11.88;;;6.03;;
50363;SDS011;36272;59.400;17.982;2022-10-16T08:52:55;9.27;;;5.97;;
50363;SDS011;36272;59.400;17.982;2022-10-16T08:57:58;10.88;;;5.43;;
50363;SDS011;36272;59.400;17.982;2022-10-16T09:03:11;10.88;;;5.38;;
50363;SDS011;36272;59.400;17.982;2022-10-16T09:19:38;10.55;;;5.35;;
50363;SDS011;36272;59.400;17.982;2022-10-16T09:24:46;8.90;;;4.72;;
50363;SDS011;36272;59.400;17.982;2022-10-16T09:29:48;8.93;;;4.82;;
50363;SDS011;36272;59.400;17.982;2022-10-16T09:34:50;10.25;;;4.47;;
50363;SDS011;36272;59.400;17.982;2022-10-16T09:39:57;10.38;;;4.30;;
50363;SDS011;36272;59.400;17.982;2022-10-16T09:44:59;10.82;;;4.82;;
50363;SDS011;36272;59.400;17.982;2022-10-16T09:50:05;10.13;;;3.67;;
50363;SDS011;36272;59.400;17.982;2022-10-16T09:55:21;10.25;;;4.50;;
50363;SDS011;36272;59.400;17.982;2022-10-16T10:00:23;11.02;;;4.15;;
50363;SDS011;36272;59.400;17.982;2022-10-16T10:05:26;13.25;;;4.10;;
50363;SDS011;36272;59.400;17.982;2022-10-16T10:10:30;7.25;;;3.60;;
50363;SDS011;36272;59.400;17.982;2022-10-16T10:15:34;6.38;;;3.38;;
50363;SDS011;36272;59.400;17.982;2022-10-16T10:20:43;11.93;;;3.63;;
50363;SDS011;36272;59.400;17.982;2022-10-16T10:31:11;7.78;;;3.15;;
50363;SDS011;36272;59.400;17.982;2022-10-16T10:52:02;5.65;;;3.10;;
50363;SDS011;36272;59.400;17.982;2022-10-16T11:02:41;6.43;;;3.55;;
50363;SDS011;36272;59.400;17.982;2022-10-16T11:12:57;9.70;;;3.83;;
50363;SDS011;36272;59.400;17.982;2022-10-16T11:23:26;12.80;;;3.22;;
50363;SDS011;36272;59.400;17.982;2022-10-16T11:28:53;7.65;;;2.97;;
50363;SDS011;36272;59.400;17.982;2022-10-16T11:34:42;6.90;;;2.97;;
50363;SDS011;36272;59.400;17.982;2022-10-16T11:39:28;10.23;;;2.90;;
50363;SDS011;36272;59.400;17.982;2022-10-16T11:50:01;7.93;;;2.50;;
50363;SDS011;36272;59.400;17.982;2022-10-16T11:55:17;7.38;;;2.50;;
50363;SDS011;36272;59.400;17.982;2022-10-16T12:06:34;8.75;;;3.38;;
50363;SDS011;36272;59.400;17.982;2022-10-16T12:11:41;10.10;;;3.35;;
50363;SDS011;36272;59.400;17.982;2022-10-16T12:16:59;8.38;;;3.40;;
50363;SDS011;36272;59.400;17.982;2022-10-16T12:22:15;6.82;;;2.72;;
50363;SDS011;36272;59.400;17.982;2022-10-16T12:27:29;6.88;;;2.83;;
50363;SDS011;36272;59.400;17.982;2022-10-16T12:32:36;7.95;;;3.03;;
50363;SDS011;36272;59.400;17.982;2022-10-16T12:37:40;14.95;;;3.15;;
50363;SDS011;36272;59.400;17.982;2022-10-16T12:42:42;9.57;;;2.95;;
50363;SDS011;36272;59.400;17.982;2022-10-16T12:47:50;9.48;;;4.00;;
50363;SDS011;36272;59.400;17.982;2022-10-16T12:52:54;11.38;;;3.70;;
50363;SDS011;36272;59.400;17.982;2022-10-16T13:13:58;5.70;;;3.58;;
50363;SDS011;36272;59.400;17.982;2022-10-16T13:24:46;6.18;;;3.00;;
50363;SDS011;36272;59.400;17.982;2022-10-16T13:30:09;8.27;;;2.60;;
50363;SDS011;36272;59.400;17.982;2022-10-16T13:35:18;9.43;;;2.53;;
50363;SDS011;36272;59.400;17.982;2022-10-16T13:40:25;8.90;;;2.83;;
50363;SDS011;36272;59.400;17.982;2022-10-16T13:45:26;7.80;;;2.80;;
50363;SDS011;36272;59.400;17.982;2022-10-16T13:50:28;9.30;;;2.70;;
50363;SDS011;36272;59.400;17.982;2022-10-16T13:55:30;5.70;;;2.92;;
50363;SDS011;36272;59.400;17.982;2022-10-16T14:00:32;5.18;;;2.58;;
50363;SDS011;36272;59.400;17.982;2022-10-16T14:05:34;9.63;;;2.92;;
50363;SDS011;36272;59.400;17.982;2022-10-16T14:10:36;6.13;;;2.72;;
50363;SDS011;36272;59.400;17.982;2022-10-16T14:15:37;6.13;;;2.50;;
50363;SDS011;36272;59.400;17.982;2022-10-16T14:20:39;4.47;;;2.40;;
50363;SDS011;36272;59.400;17.982;2022-10-16T14:25:41;6.95;;;2.13;;
50363;SDS011;36272;59.400;17.982;2022-10-16T14:30:59;3.38;;;1.60;;
50363;SDS011;36272;59.400;17.982;2022-10-16T14:41:13;3.40;;;2.03;;
50363;SDS011;36272;59.400;17.982;2022-10-16T14:46:17;6.90;;;2.22;;
50363;SDS011;36272;59.400;17.982;2022-10-16T14:51:21;8.03;;;2.90;;
50363;SDS011;36272;59.400;17.982;2022-10-16T14:56:24;7.05;;;2.78;;
50363;SDS011;36272;59.400;17.982;2022-10-16T15:01:29;10.10;;;2.97;;
50363;SDS011;36272;59.400;17.982;2022-10-16T15:06:31;7.03;;;2.60;;
50363;SDS011;36272;59.400;17.982;2022-10-16T15:11:32;7.20;;;3.08;;
50363;SDS011;36272;59.400;17.982;2022-10-16T15:16:35;9.52;;;3.00;;
50363;SDS011;36272;59.400;17.982;2022-10-16T15:21:52;14.38;;;3.33;;
50363;SDS011;36272;59.400;17.982;2022-10-16T15:27:11;5.95;;;2.00;;
50363;SDS011;36272;59.400;17.982;2022-10-16T15:32:13;6.75;;;2.40;;
50363;SDS011;36272;59.400;17.982;2022-10-16T15:37:15;12.65;;;3.08;;
50363;SDS011;36272;59.400;17.982;2022-10-16T15:42:16;3.70;;;2.10;;
50363;SDS011;36272;59.400;17.982;2022-10-16T15:47:18;6.80;;;2.17;;
50363;SDS011;36272;59.400;17.982;2022-10-16T15:52:19;11.63;;;2.85;;
50363;SDS011;36272;59.400;17.982;2022-10-16T15:57:21;9.15;;;2.50;;
50363;SDS011;36272;59.400;17.982;2022-10-16T16:02:30;7.50;;;2.10;;
50363;SDS011;36272;59.400;17.982;2022-10-16T16:07:32;4.07;;;2.03;;
50363;SDS011;36272;59.400;17.982;2022-10-16T16:12:38;10.93;;;2.40;;
50363;SDS011;36272;59.400;17.982;2022-10-16T16:17:39;7.75;;;2.30;;
50363;SDS011;36272;59.400;17.982;2022-10-16T16:22:41;7.80;;;2.00;;
50363;SDS011;36272;59.400;17.982;2022-10-16T16:27:43;5.93;;;1.90;;
50363;SDS011;36272;59.400;17.982;2022-10-16T16:32:50;9.50;;;2.05;;
50363;SDS011;36272;59.400;17.982;2022-10-16T16:37:52;9.07;;;2.42;;
50363;SDS011;36272;59.400;17.982;2022-10-16T16:42:53;6.00;;;1.67;;
50363;SDS011;36272;59.400;17.982;2022-10-16T16:47:55;5.70;;;1.75;;
50363;SDS011;36272;59.400;17.982;2022-10-16T16:58:08;5.05;;;1.40;;
50363;SDS011;36272;59.400;17.982;2022-10-16T17:03:10;9.05;;;1.27;;
50363;SDS011;36272;59.400;17.982;2022-10-16T17:08:21;6.97;;;1.40;;
50363;SDS011;36272;59.400;17.982;2022-10-16T17:13:26;3.75;;;1.00;;
50363;SDS011;36272;59.400;17.982;2022-10-16T17:18:29;2.70;;;0.93;;
50363;SDS011;36272;59.400;17.982;2022-10-16T17:29:20;3.67;;;1.05;;
50363;SDS011;36272;59.400;17.982;2022-10-16T17:34:22;1.73;;;0.70;;
50363;SDS011;36272;59.400;17.982;2022-10-16T17:39:45;10.10;;;1.25;;
50363;SDS011;36272;59.400;17.982;2022-10-16T17:45:43;3.05;;;0.80;;
50363;SDS011;36272;59.400;17.982;2022-10-16T17:51:02;5.03;;;0.95;;
50363;SDS011;36272;59.400;17.982;2022-10-16T17:56:20;3.47;;;0.70;;
50363;SDS011;36272;59.400;17.982;2022-10-16T18:02:26;4.75;;;1.05;;
50363;SDS011;36272;59.400;17.982;2022-10-16T18:43:45;11.98;;;1.80;;
50363;SDS011;36272;59.400;17.982;2022-10-16T18:48:47;6.30;;;1.50;;
50363;SDS011;36272;59.400;17.982;2022-10-16T18:59:55;7.32;;;1.70;;
50363;SDS011;36272;59.400;17.982;2022-10-16T19:05:00;6.27;;;1.53;;
50363;SDS011;36272;59.400;17.982;2022-10-16T19:10:02;7.78;;;1.90;;
50363;SDS011;36272;59.400;17.982;2022-10-16T19:15:16;10.00;;;1.77;;
50363;SDS011;36272;59.400;17.982;2022-10-16T19:20:20;17.02;;;2.10;;
50363;SDS011;36272;59.400;17.982;2022-10-16T19:25:21;9.75;;;2.00;;
50363;SDS011;36272;59.400;17.982;2022-10-16T19:30:23;10.85;;;1.92;;
50363;SDS011;36272;59.400;17.982;2022-10-16T19:35:27;10.55;;;2.28;;
50363;SDS011;36272;59.400;17.982;2022-10-16T19:40:29;15.65;;;2.63;;
50363;SDS011;36272;59.400;17.982;2022-10-16T19:45:31;12.68;;;2.15;;
50363;SDS011;36272;59.400;17.982;2022-10-16T19:50:44;13.23;;;2.20;;
50363;SDS011;36272;59.400;17.982;2022-10-16T19:55:53;12.55;;;2.45;;
50363;SDS011;36272;59.400;17.982;2022-10-16T20:01:02;14.63;;;2.33;;
50363;SDS011;36272;59.400;17.982;2022-10-16T20:06:05;12.93;;;1.90;;
50363;SDS011;36272;59.400;17.982;2022-10-16T20:11:11;17.83;;;3.00;;
50363;SDS011;36272;59.400;17.982;2022-10-16T20:16:14;14.88;;;2.42;;
50363;SDS011;36272;59.400;17.982;2022-10-16T20:21:30;16.10;;;2.55;;
50363;SDS011;36272;59.400;17.982;2022-10-16T20:26:36;16.98;;;2.53;;
50363;SDS011;36272;59.400;17.982;2022-10-16T20:31:38;16.75;;;2.72;;
50363;SDS011;36272;59.400;17.982;2022-10-16T20:36:40;16.73;;;2.72;;
50363;SDS011;36272;59.400;17.982;2022-10-16T20:41:43;14.80;;;2.47;;
50363;SDS011;36272;59.400;17.982;2022-10-16T20:46:45;14.50;;;2.47;;
50363;SDS011;36272;59.400;17.982;2022-10-16T20:51:46;18.27;;;2.70;;
50363;SDS011;36272;59.400;17.982;2022-10-16T20:56:50;14.32;;;2.25;;
50363;SDS011;36272;59.400;17.982;2022-10-16T21:01:53;9.95;;;1.75;;
50363;SDS011;36272;59.400;17.982;2022-10-16T21:06:54;14.02;;;1.88;;
50363;SDS011;36272;59.400;17.982;2022-10-16T21:11:56;11.00;;;1.83;;
50363;SDS011;36272;59.400;17.982;2022-10-16T21:16:57;11.98;;;2.30;;
50363;SDS011;36272;59.400;17.982;2022-10-16T21:21:59;12.43;;;1.88;;
50363;SDS011;36272;59.400;17.982;2022-10-16T21:27:01;9.35;;;1.85;;
50363;SDS011;36272;59.400;17.982;2022-10-16T21:32:02;14.85;;;2.90;;
50363;SDS011;36272;59.400;17.982;2022-10-16T21:37:04;13.68;;;2.08;;
50363;SDS011;36272;59.400;17.982;2022-10-16T21:42:06;11.45;;;1.40;;
50363;SDS011;36272;59.400;17.982;2022-10-16T21:47:07;11.55;;;1.95;;
50363;SDS011;36272;59.400;17.982;2022-10-16T21:52:09;8.93;;;1.42;;
50363;SDS011;36272;59.400;17.982;2022-10-16T21:57:11;7.07;;;1.45;;
50363;SDS011;36272;59.400;17.982;2022-10-16T22:02:13;10.23;;;1.67;;
50363;SDS011;36272;59.400;17.982;2022-10-16T22:07:15;8.25;;;1.30;;
50363;SDS011;36272;59.400;17.982;2022-10-16T22:12:17;4.95;;;1.50;;
50363;SDS011;36272;59.400;17.982;2022-10-16T22:17:19;8.57;;;1.55;;
50363;SDS011;36272;59.400;17.982;2022-10-16T22:22:21;7.25;;;1.55;;
50363;SDS011;36272;59.400;17.982;2022-10-16T22:27:23;13.80;;;1.73;;
50363;SDS011;36272;59.400;17.982;2022-10-16T22:32:24;11.50;;;1.60;;
50363;SDS011;36272;59.400;17.982;2022-10-16T22:37:26;8.82;;;2.20;;
50363;SDS011;36272;59.400;17.982;2022-10-16T22:42:28;14.27;;;1.70;;
50363;SDS011;36272;59.400;17.982;2022-10-16T22:47:29;7.88;;;1.58;;
50363;SDS011;36272;59.400;17.982;2022-10-16T22:52:31;9.55;;;2.33;;
50363;SDS011;36272;59.400;17.982;2022-10-16T22:57:32;8.77;;;1.48;;
50363;SDS011;36272;59.400;17.982;2022-10-16T23:02:34;6.55;;;1.17;;
50363;SDS011;36272;59.400;17.982;2022-10-16T23:07:36;12.07;;;1.88;;
50363;SDS011;36272;59.400;17.982;2022-10-16T23:12:38;12.90;;;2.50;;
50363;SDS011;36272;59.400;17.982;2022-10-16T23:17:39;10.10;;;1.80;;
50363;SDS011;36272;59.400;17.982;2022-10-16T23:22:41;6.80;;;1.50;;
50363;SDS011;36272;59.400;17.982;2022-10-16T23:27:43;9.18;;;1.80;;
50363;SDS011;36272;59.400;17.982;2022-10-16T23:32:44;14.70;;;1.90;;
50363;SDS011;36272;59.400;17.982;2022-10-16T23:37:46;13.68;;;1.83;;
50363;SDS011;36272;59.400;17.982;2022-10-16T23:42:47;7.55;;;1.65;;
50363;SDS011;36272;59.400;17.982;2022-10-16T23:47:49;12.05;;;1.73;;
50363;SDS011;36272;59.400;17.982;2022-10-16T23:52:50;14.02;;;2.03;;
50363;SDS011;36272;59.400;17.982;2022-10-16T23:57:52;15.25;;;2.17;;
